Meridian, Pennsylvania
Current Conditions -  °F | °C
As of 7:55 PM on Wednesday 17 Dec 2014 (Local Time) from KBTP Reporting Station
Overcast Overcast  
Wind Chill: 23°   Ceiling: 2300
Heat Index: 30°   Visibility: 10mi
Dew Point: 21°   Wind: 7mph
Humidity: 69%   Direction: 280°W
Pressure: 30.1"   Gusts: NA
Location:  40.9096°N, 79.9361°W
Report Text: KBTP 180055Z AUTO 28006KT 250V310 10SM OVC023 M01/M06 A3010 RMK AO1
Loading
Personal Weather Stations






























Interactive Weather Map New forecast layout! Learn more

10-Day Weather Forecast

Advertisements
Track Severe Weather on mobile